SEVKG ESUT-ENBO

Flight info

Callsign SEVKG
Flight time N/A
Altitude FL060
Route DCT ENBO
Aircraft P28A/L-S/N

Departure

Time 2026-04-17 12:19
Airport Hemavan Airport (ESUT)

Arrival

Time N/A
Airport Bodø Airport (ENBO)
Time Latitude Longitude Altitude Speed Heading
2026-04-17 12:14 65.86586 14.25825 1267 ft 0 kts 356°
2026-04-17 12:14 65.86593 14.25823 1267 ft 0 kts 347°
2026-04-17 12:14 65.86617 14.25804 1267 ft 9 kts 340°
2026-04-17 12:15 65.86695 14.25761 1267 ft 8 kts 352°
2026-04-17 12:15 65.86715 14.25745 1267 ft 0 kts 336°
2026-04-17 12:15 65.86728 14.25727 1267 ft 10 kts 320°
2026-04-17 12:15 65.86740 14.25644 1267 ft 1 kts 270°
2026-04-17 12:16 65.86739 14.25415 1267 ft 23 kts 268°
2026-04-17 12:16 65.86727 14.24934 1268 ft 33 kts 264°
2026-04-17 12:16 65.86707 14.24320 1267 ft 35 kts 266°
2026-04-17 12:16 65.86697 14.24037 1268 ft 3 kts 158°
2026-04-17 12:17 65.86672 14.24181 1267 ft 19 kts 99°
2026-04-17 12:17 65.86689 14.24341 1267 ft 0 kts 83°
2026-04-17 12:17 65.86689 14.24346 1268 ft 6 kts 83°
2026-04-17 12:17 65.86710 14.24841 1267 ft 48 kts 82°
2026-04-17 12:18 65.86762 14.25924 1314 ft 74 kts 83°
2026-04-17 12:18 65.86849 14.27173 1493 ft 78 kts 82°
2026-04-17 12:18 65.86945 14.28542 1638 ft 86 kts 81°
2026-04-17 12:18 65.87297 14.29726 1773 ft 88 kts 41°
2026-04-17 12:19 65.87709 14.30832 1901 ft 89 kts 54°
2026-04-17 12:19 65.88077 14.31971 1997 ft 93 kts 53°
2026-04-17 12:19 65.88485 14.33227 2094 ft 95 kts 53°
2026-04-17 12:19 65.88902 14.34515 2184 ft 97 kts 53°
2026-04-17 12:20 65.89325 14.35822 2269 ft 98 kts 53°
2026-04-17 12:20 65.89749 14.37138 2350 ft 99 kts 54°
2026-04-17 12:20 65.90166 14.38432 2427 ft 100 kts 53°
2026-04-17 12:20 65.90685 14.39568 2508 ft 100 kts 37°
2026-04-17 12:21 65.91260 14.40529 2590 ft 101 kts 36°
2026-04-17 12:21 65.91841 14.41490 2681 ft 100 kts 36°
2026-04-17 12:21 65.92411 14.42436 2777 ft 99 kts 36°
2026-04-17 12:21 65.92987 14.43268 2872 ft 99 kts 26°
2026-04-17 12:22 65.93645 14.43892 2985 ft 103 kts 19°
2026-04-17 12:22 65.94341 14.44386 3103 ft 106 kts 16°
2026-04-17 12:22 65.94812 14.44701 3178 ft 107 kts 15°
2026-04-17 12:23 65.95318 14.45042 3256 ft 108 kts 15°
2026-04-17 12:23 65.96047 14.45499 3365 ft 109 kts 13°
2026-04-17 12:23 65.96792 14.45911 3470 ft 110 kts 13°
2026-04-17 12:23 65.97540 14.46326 3576 ft 110 kts 13°
2026-04-17 12:24 65.98290 14.46747 3678 ft 110 kts 13°
2026-04-17 12:24 65.99035 14.47170 3790 ft 109 kts 13°
2026-04-17 12:24 65.99769 14.47590 3928 ft 107 kts 13°
2026-04-17 12:24 66.00487 14.48007 4064 ft 105 kts 13°
2026-04-17 12:25 66.01189 14.48419 4203 ft 103 kts 13°
2026-04-17 12:25 66.01886 14.48833 4345 ft 102 kts 13°
2026-04-17 12:25 66.02569 14.49245 4488 ft 100 kts 13°
2026-04-17 12:25 66.03243 14.49656 4630 ft 99 kts 13°
2026-04-17 12:26 66.03912 14.50066 4773 ft 98 kts 13°
2026-04-17 12:26 66.04568 14.50473 4917 ft 97 kts 13°
2026-04-17 12:26 66.05220 14.50882 5061 ft 96 kts 13°
2026-04-17 12:26 66.05867 14.51291 5203 ft 95 kts 13°
2026-04-17 12:27 66.06446 14.51661 5330 ft 94 kts 13°
2026-04-17 12:27 66.07009 14.52023 5459 ft 94 kts 13°
2026-04-17 12:27 66.07637 14.52085 5574 ft 93 kts 338°
2026-04-17 12:27 66.08129 14.51498 5739 ft 87 kts 332°
2026-04-17 12:28 66.08534 14.51027 5844 ft 87 kts 332°
2026-04-17 12:28 66.09085 14.50382 5988 ft 86 kts 332°
2026-04-17 12:28 66.09625 14.49755 6132 ft 86 kts 332°
2026-04-17 12:28 66.10166 14.49130 6256 ft 87 kts 332°
2026-04-17 12:29 66.10732 14.48475 6328 ft 94 kts 332°
2026-04-17 12:29 66.11350 14.47755 6345 ft 103 kts 332°
2026-04-17 12:29 66.12028 14.46960 6330 ft 111 kts 332°
2026-04-17 12:29 66.12726 14.46143 6295 ft 111 kts 333°
2026-04-17 12:30 66.13421 14.45334 6283 ft 109 kts 333°
2026-04-17 12:30 66.14070 14.44580 6245 ft 95 kts 332°
2026-04-17 12:30 66.14668 14.43890 6255 ft 89 kts 332°